createdAt,value
2023-02-03T00:08:45.016Z,19.1
2023-02-03T00:18:44.965Z,19
2023-02-03T00:28:45.552Z,19
2023-02-03T00:38:46.118Z,19
2023-02-03T00:48:46.877Z,19
2023-02-03T00:58:47.309Z,19
2023-02-03T01:08:48.326Z,18.9
2023-02-03T01:18:49.385Z,18.9
2023-02-03T01:38:50.603Z,18.9
2023-02-03T01:48:50.910Z,18.9
2023-02-03T01:58:51.039Z,18.9
2023-02-03T02:18:52.186Z,18.8
2023-02-03T02:28:52.984Z,18.8
2023-02-03T02:38:53.061Z,18.8
2023-02-03T02:48:53.476Z,18.8
2023-02-03T02:58:54.543Z,18.8
2023-02-03T03:08:54.945Z,18.8
2023-02-03T03:18:55.731Z,18.8
2023-02-03T03:28:56.439Z,18.7
2023-02-03T03:38:57.205Z,18.7
2023-02-03T03:48:57.649Z,18.7
2023-02-03T03:58:58.182Z,18.7
2023-02-03T04:08:58.847Z,18.7
2023-02-03T04:18:59.641Z,18.7
2023-02-03T04:29:00.284Z,18.7
2023-02-03T04:39:00.623Z,18.7
2023-02-03T04:49:01.002Z,18.7
2023-02-03T04:59:01.822Z,18.7
2023-02-03T05:09:02.529Z,18.6
2023-02-03T05:19:03.481Z,18.6
2023-02-03T05:29:03.955Z,18.6
2023-02-03T05:39:04.303Z,18.6
2023-02-03T05:49:05.324Z,18.6
2023-02-03T05:59:06.076Z,18.6
2023-02-03T06:09:06.747Z,18.6
2023-02-03T06:19:07.647Z,18.6
2023-02-03T06:29:07.785Z,18.6
2023-02-03T06:39:08.648Z,18.6
2023-02-03T06:49:09.167Z,18.6
2023-02-03T06:59:10.160Z,18.6
2023-02-03T07:19:11.523Z,18.6
2023-02-03T07:29:11.733Z,18.6
2023-02-03T07:39:12.815Z,18.6
2023-02-03T07:49:12.970Z,18.6
2023-02-03T07:59:14.073Z,18.6
2023-02-03T08:09:15.105Z,18.6
2023-02-03T08:19:15.548Z,18.5
2023-02-03T08:29:16.026Z,18.2
2023-02-03T08:39:16.490Z,18
2023-02-03T08:49:16.807Z,17.5
2023-02-03T08:59:17.174Z,17.6
2023-02-03T09:09:17.883Z,17.3
2023-02-03T09:19:18.905Z,17
2023-02-03T09:29:19.044Z,17.1
2023-02-03T09:39:19.904Z,17.2
2023-02-03T09:49:20.772Z,17.4
2023-02-03T09:59:21.786Z,17.6
2023-02-03T10:09:22.067Z,17.7
2023-02-03T10:19:22.274Z,17.8
2023-02-03T10:29:22.538Z,17.9
2023-02-03T10:39:22.929Z,18
2023-02-03T10:59:24.659Z,18.1
2023-02-03T11:09:25.212Z,18.1
2023-02-03T11:19:26.072Z,18.2
2023-02-03T11:29:26.642Z,18.2
2023-02-03T11:39:26.884Z,18.2
2023-02-03T11:49:27.903Z,18.3
2023-02-03T11:59:28.411Z,18.3
2023-02-03T12:09:29.188Z,18.4
2023-02-03T12:19:29.563Z,18.4
2023-02-03T12:29:32.088Z,18.4
2023-02-03T12:39:31.095Z,18.4
2023-02-03T12:49:31.443Z,18.5
2023-02-03T12:59:31.815Z,18.5
2023-02-03T12:59:53.721Z,18.5
2023-02-03T13:09:38.260Z,18.5
2023-02-03T13:29:39.958Z,18.5
2023-02-03T13:39:40.635Z,18.6
2023-02-03T13:49:40.890Z,18.6
2023-02-03T13:59:41.752Z,18.6
2023-02-03T14:09:42.325Z,18.6
2023-02-03T14:19:43.013Z,18.6
2023-02-03T14:29:43.138Z,18.7
2023-02-03T14:39:44.131Z,18.7
2023-02-03T14:49:44.247Z,18.7
2023-02-03T14:59:44.348Z,18.7
2023-02-03T15:09:44.555Z,18.7
2023-02-03T15:19:45.315Z,18.7
2023-02-03T15:29:46.242Z,18.7
2023-02-03T15:39:46.321Z,18.7
2023-02-03T15:49:46.717Z,18.7
2023-02-03T15:59:47.219Z,18.7
2023-02-03T16:09:47.837Z,18.8
2023-02-03T16:19:48.217Z,18.8
2023-02-03T16:29:49.050Z,18.8
2023-02-03T16:39:49.555Z,18.8
2023-02-03T16:59:50.594Z,18.8
2023-02-03T17:09:51.009Z,18.8
2023-02-03T17:19:51.889Z,18.8
2023-02-03T17:29:52.724Z,18.8
2023-02-03T17:59:54.491Z,18.8
2023-02-03T18:09:55.403Z,18.8
2023-02-03T18:19:56.603Z,18.8
2023-02-03T18:29:57.288Z,18.8
2023-02-03T18:39:57.760Z,18.8
2023-02-03T18:49:57.799Z,18.8
2023-02-03T18:59:58.673Z,18.8
2023-02-03T19:09:59.524Z,18.8
2023-02-03T19:20:00.563Z,18.8
2023-02-03T19:30:01.577Z,18.8
2023-02-03T19:40:02.059Z,18.8
2023-02-03T19:50:02.908Z,18.8
2023-02-03T20:00:03.927Z,18.8
2023-02-03T20:10:04.404Z,18.8
2023-02-03T20:20:04.894Z,18.8
2023-02-03T20:30:05.784Z,18.8
2023-02-03T20:50:06.158Z,18.8
2023-02-03T21:00:06.248Z,18.8
2023-02-03T21:20:06.903Z,18.8
2023-02-03T21:30:07.609Z,18.8
2023-02-03T21:40:08.388Z,18.8
2023-02-03T21:50:08.547Z,18.8
2023-02-03T22:00:09.716Z,18.8
2023-02-03T22:10:09.512Z,18.8
2023-02-03T22:40:11.596Z,18.8
2023-02-03T22:50:11.971Z,18.8
2023-02-03T23:30:15.379Z,18.8
2023-02-03T23:40:16.204Z,18.8
2023-02-03T23:50:16.674Z,18.8
